createdAt,value
2018-04-15T00:01:04.910Z,15.30
2018-04-15T00:03:31.901Z,15.30
2018-04-15T00:05:58.896Z,15.30
2018-04-15T00:08:25.905Z,15.30
2018-04-15T00:10:52.899Z,15.30
2018-04-15T00:13:19.886Z,15.30
2018-04-15T00:15:46.877Z,15.30
2018-04-15T00:18:13.871Z,15.30
2018-04-15T00:20:40.866Z,15.30
2018-04-15T00:23:07.854Z,15.30
2018-04-15T00:25:34.844Z,15.30
2018-04-15T00:28:01.844Z,15.30
2018-04-15T00:30:29.594Z,15.30
2018-04-15T00:32:57.352Z,15.30
2018-04-15T00:35:25.141Z,15.30
2018-04-15T00:37:52.134Z,15.30
2018-04-15T00:40:19.890Z,15.20
2018-04-15T00:42:46.886Z,15.20
2018-04-15T00:45:13.875Z,15.30
2018-04-15T00:47:40.884Z,15.30
2018-04-15T00:50:07.874Z,15.30
2018-04-15T00:52:34.866Z,15.30
2018-04-15T00:55:01.854Z,15.30
2018-04-15T00:57:28.852Z,15.20
2018-04-15T00:59:56.610Z,15.30
2018-04-15T01:02:24.364Z,15.30
2018-04-15T01:04:52.125Z,15.30
2018-04-15T01:07:19.118Z,15.20
2018-04-15T01:09:46.110Z,15.20
2018-04-15T01:12:13.111Z,15.30
2018-04-15T01:14:40.098Z,15.20
2018-04-15T01:17:07.103Z,15.30
2018-04-15T01:19:34.093Z,15.20
2018-04-15T01:22:01.095Z,15.20
2018-04-15T01:24:28.082Z,15.30
2018-04-15T01:26:55.069Z,15.20
2018-04-15T01:29:22.065Z,15.20
2018-04-15T01:31:49.050Z,15.20
2018-04-15T01:34:16.038Z,15.30
2018-04-15T01:36:43.040Z,15.20
2018-04-15T01:39:10.792Z,15.20
2018-04-15T01:41:38.546Z,15.20
2018-04-15T01:44:05.538Z,15.20
2018-04-15T01:46:32.540Z,15.20
2018-04-15T01:49:00.298Z,15.20
2018-04-15T01:51:27.297Z,15.20
2018-04-15T01:53:54.290Z,15.20
2018-04-15T01:56:21.301Z,15.20
2018-04-15T01:58:49.051Z,15.20
2018-04-15T02:01:16.044Z,15.20
2018-04-15T02:03:43.029Z,15.20
2018-04-15T02:06:10.018Z,15.20
2018-04-15T02:08:37.006Z,15.20
2018-04-15T02:11:03.994Z,15.20
2018-04-15T02:13:30.988Z,15.20
2018-04-15T02:15:58.741Z,15.20
2018-04-15T02:18:26.494Z,15.20
2018-04-15T02:20:53.485Z,15.20
2018-04-15T02:23:20.486Z,15.20
2018-04-15T02:25:47.471Z,15.20
2018-04-15T02:28:14.581Z,15.20
2018-04-15T02:30:41.563Z,15.20
2018-04-15T02:33:08.553Z,15.20
2018-04-15T02:35:36.314Z,15.20
2018-04-15T02:38:03.306Z,15.20
2018-04-15T02:40:30.298Z,15.20
2018-04-15T02:42:57.298Z,15.20
2018-04-15T02:45:24.286Z,15.20
2018-04-15T02:47:51.277Z,15.20
2018-04-15T02:50:19.040Z,15.20
2018-04-15T02:52:46.017Z,15.20
2018-04-15T02:55:13.019Z,15.20
2018-04-15T02:57:40.007Z,15.10
2018-04-15T03:00:07.024Z,15.10
2018-04-15T03:02:34.781Z,15.20
2018-04-15T03:05:01.771Z,15.10
2018-04-15T03:07:28.769Z,15.10
2018-04-15T03:09:56.530Z,15.10
2018-04-15T03:12:23.525Z,15.10
2018-04-15T03:14:50.519Z,15.10
2018-04-15T03:17:17.506Z,15.10
2018-04-15T03:19:44.499Z,15.10
2018-04-15T03:22:11.486Z,15.10
2018-04-15T03:24:38.469Z,15.10
2018-04-15T03:27:05.461Z,15.10
2018-04-15T03:29:33.226Z,15.10
2018-04-15T03:32:00.985Z,15.10
2018-04-15T03:34:28.737Z,15.10
2018-04-15T03:36:55.730Z,15.10
2018-04-15T03:39:22.721Z,15.10
2018-04-15T03:41:49.731Z,15.10
2018-04-15T03:44:16.719Z,15.10
2018-04-15T03:46:43.705Z,15.10
2018-04-15T03:49:10.698Z,15.10
2018-04-15T03:51:37.694Z,15.10
2018-04-15T03:54:04.682Z,15.10
2018-04-15T03:56:31.681Z,15.10
2018-04-15T03:58:58.671Z,15.10
2018-04-15T04:01:25.666Z,15.10
2018-04-15T04:03:52.658Z,15.10
2018-04-15T04:06:19.653Z,15.10
2018-04-15T04:08:47.414Z,15.10
2018-04-15T04:11:15.169Z,15.10
2018-04-15T04:13:42.925Z,15.10
2018-04-15T04:16:10.682Z,15.10
2018-04-15T04:18:43.468Z,15.10
2018-04-15T04:21:16.609Z,15.10
2018-04-15T04:23:49.696Z,15.10
2018-04-15T04:26:16.679Z,15.10
2018-04-15T04:28:43.669Z,15.10
2018-04-15T04:31:10.663Z,15.10
2018-04-15T04:33:37.655Z,15.10
2018-04-15T04:36:04.649Z,15.10
2018-04-15T04:38:31.642Z,15.10
2018-04-15T04:40:58.625Z,15.10
2018-04-15T04:43:25.622Z,15.10
2018-04-15T04:45:53.382Z,15.10
2018-04-15T04:48:21.145Z,15.00
2018-04-15T04:50:48.897Z,15.10
2018-04-15T04:53:15.930Z,15.00
2018-04-15T04:55:42.922Z,15.00
2018-04-15T04:58:09.930Z,15.00
2018-04-15T05:00:36.932Z,15.00
2018-04-15T05:03:03.917Z,15.00
2018-04-15T05:05:30.909Z,15.00
2018-04-15T05:07:57.903Z,15.00
2018-04-15T05:10:24.894Z,15.00
2018-04-15T05:12:51.900Z,15.00
2018-04-15T05:15:18.886Z,15.00
2018-04-15T05:17:45.889Z,15.00
2018-04-15T05:20:12.873Z,15.10
2018-04-15T05:22:39.865Z,15.00
2018-04-15T05:25:06.864Z,15.00
2018-04-15T05:27:33.851Z,15.00
2018-04-15T05:30:00.841Z,15.00
2018-04-15T05:32:28.598Z,15.00
2018-04-15T05:34:55.590Z,15.00
2018-04-15T05:37:22.581Z,15.00
2018-04-15T05:39:49.582Z,15.00
2018-04-15T05:42:16.617Z,15.00
2018-04-15T05:44:43.620Z,15.00
2018-04-15T05:47:10.670Z,15.00
2018-04-15T05:49:37.686Z,15.00
2018-04-15T05:52:04.680Z,15.00
2018-04-15T05:54:32.436Z,15.00
2018-04-15T05:57:00.202Z,15.00
2018-04-15T05:59:27.999Z,15.00
2018-04-15T06:01:55.726Z,15.00
2018-04-15T06:04:23.508Z,15.00
2018-04-15T06:06:50.499Z,14.90
2018-04-15T06:09:17.491Z,15.00
2018-04-15T06:11:45.248Z,15.00
2018-04-15T06:14:13.014Z,15.00
2018-04-15T06:16:40.770Z,15.00
2018-04-15T06:19:08.530Z,15.00
2018-04-15T06:21:36.313Z,15.00
2018-04-15T06:24:03.879Z,14.90
2018-04-15T06:26:31.627Z,15.00
2018-04-15T06:28:59.389Z,14.90
2018-04-15T06:31:27.173Z,15.00
2018-04-15T06:33:54.163Z,14.90
2018-04-15T06:36:21.152Z,14.90
2018-04-15T06:38:48.166Z,15.00
2018-04-15T06:41:15.161Z,14.90
2018-04-15T06:43:42.150Z,15.00
2018-04-15T06:46:09.162Z,14.90
2018-04-15T06:48:36.155Z,15.00
2018-04-15T06:51:03.182Z,14.90
2018-04-15T06:53:30.176Z,15.00
2018-04-15T06:55:57.174Z,15.00
2018-04-15T06:58:24.162Z,15.00
2018-04-15T07:00:51.153Z,15.00
2018-04-15T07:03:18.148Z,15.00
2018-04-15T07:05:45.908Z,14.90
2018-04-15T07:08:13.662Z,14.90
2018-04-15T07:10:41.426Z,14.90
2018-04-15T07:13:08.414Z,14.90
2018-04-15T07:15:35.407Z,14.90
2018-04-15T07:18:02.412Z,14.90
2018-04-15T07:20:29.394Z,14.90
2018-04-15T07:22:56.395Z,14.90
2018-04-15T07:25:23.390Z,14.90
2018-04-15T07:27:50.405Z,14.90
2018-04-15T07:30:17.403Z,14.90
2018-04-15T07:32:45.163Z,14.90
2018-04-15T07:35:12.918Z,14.90
2018-04-15T07:37:40.678Z,14.90
2018-04-15T07:40:07.657Z,14.90
2018-04-15T07:42:34.661Z,14.90
2018-04-15T07:45:01.647Z,14.90
2018-04-15T07:47:28.865Z,14.90
2018-04-15T07:49:55.871Z,14.90
2018-04-15T07:52:22.861Z,14.90
2018-04-15T07:54:50.621Z,14.90
2018-04-15T07:57:17.601Z,14.90
2018-04-15T07:59:44.605Z,14.90
2018-04-15T08:02:11.600Z,14.90
2018-04-15T08:04:38.589Z,14.90
2018-04-15T08:07:05.583Z,14.90
2018-04-15T08:09:33.335Z,14.90
2018-04-15T08:12:01.092Z,14.90
2018-04-15T08:14:28.866Z,14.90
2018-04-15T08:16:55.866Z,14.90
2018-04-15T08:19:22.853Z,14.90
2018-04-15T08:21:49.853Z,14.90
2018-04-15T08:24:16.841Z,14.90
2018-04-15T08:26:44.602Z,14.90
2018-04-15T08:29:12.364Z,14.90
2018-04-15T08:31:40.110Z,14.90
2018-04-15T08:34:07.869Z,14.90
2018-04-15T08:36:34.871Z,14.90
2018-04-15T08:39:01.856Z,14.90
2018-04-15T08:41:28.851Z,14.90
2018-04-15T08:43:55.860Z,14.90
2018-04-15T08:46:22.849Z,14.90
2018-04-15T08:48:49.850Z,14.90
2018-04-15T08:51:16.850Z,14.90
2018-04-15T08:53:43.842Z,14.90
2018-04-15T08:56:11.598Z,14.90
2018-04-15T08:58:38.590Z,14.90
2018-04-15T09:01:05.620Z,14.90
2018-04-15T09:03:32.624Z,14.90
2018-04-15T09:05:59.664Z,14.90
2018-04-15T09:08:26.660Z,14.90
2018-04-15T09:10:53.648Z,14.90
2018-04-15T09:13:20.661Z,14.90
2018-04-15T09:15:48.397Z,14.90
2018-04-15T09:18:16.187Z,14.90
2018-04-15T09:20:43.919Z,14.90
2018-04-15T09:23:11.717Z,14.90
2018-04-15T09:25:39.461Z,14.90
2018-04-15T09:28:07.239Z,14.90
2018-04-15T09:30:40.029Z,14.90
2018-04-15T09:33:07.027Z,14.90
2018-04-15T09:35:34.021Z,14.90
2018-04-15T09:38:01.022Z,14.90
2018-04-15T09:40:28.019Z,14.90
2018-04-15T09:42:55.010Z,14.90
2018-04-15T09:45:22.467Z,14.90
2018-04-15T09:47:49.459Z,14.90
2018-04-15T09:50:16.459Z,14.90
2018-04-15T09:52:43.494Z,14.90
2018-04-15T09:55:10.498Z,14.90
2018-04-15T09:57:37.486Z,14.90
2018-04-15T10:00:04.500Z,14.90
2018-04-15T10:02:31.486Z,14.90
2018-04-15T10:04:58.492Z,14.90
2018-04-15T10:07:25.507Z,14.90
2018-04-15T10:09:53.246Z,14.90
2018-04-15T10:12:21.007Z,14.90
2018-04-15T10:14:48.036Z,14.90
2018-04-15T10:17:16.543Z,14.90
2018-04-15T10:19:44.499Z,14.90
2018-04-15T10:22:11.486Z,14.90
2018-04-15T10:24:38.635Z,14.90
2018-04-15T10:27:05.664Z,14.90
2018-04-15T10:29:33.458Z,14.90
2018-04-15T10:32:00.466Z,14.90
2018-04-15T10:34:28.480Z,14.90
2018-04-15T10:36:55.469Z,14.90
2018-04-15T10:39:23.002Z,14.90
2018-04-15T10:41:50.010Z,15.00
2018-04-15T10:44:17.005Z,14.90
2018-04-15T10:46:44.009Z,15.00
2018-04-15T10:49:11.094Z,15.00
2018-04-15T10:51:38.112Z,14.90
2018-04-15T10:54:05.095Z,14.90
2018-04-15T10:56:32.104Z,15.00
2018-04-15T10:58:59.090Z,15.00
2018-04-15T11:01:26.195Z,15.00
2018-04-15T11:03:53.177Z,15.00
2018-04-15T11:06:20.174Z,15.00
2018-04-15T11:08:47.183Z,15.00
2018-04-15T11:11:14.171Z,15.00
2018-04-15T11:13:41.160Z,15.00
2018-04-15T11:16:08.142Z,15.10
2018-04-15T11:18:35.898Z,15.00
2018-04-15T11:21:03.860Z,15.00
2018-04-15T11:23:31.657Z,15.10
2018-04-15T11:25:58.606Z,15.10
2018-04-15T11:28:25.597Z,15.20
2018-04-15T11:30:52.586Z,15.10
2018-04-15T11:33:19.583Z,15.10
2018-04-15T11:35:46.570Z,15.20
2018-04-15T11:38:13.570Z,15.20
2018-04-15T11:40:40.554Z,15.30
2018-04-15T11:43:07.550Z,15.30
2018-04-15T11:45:34.549Z,15.30
2018-04-15T11:48:01.547Z,15.30
2018-04-15T11:50:28.527Z,15.30
2018-04-15T11:52:56.307Z,15.30
2018-04-15T11:55:23.291Z,15.30
2018-04-15T11:57:50.282Z,15.30
2018-04-15T12:00:18.034Z,15.30
2018-04-15T12:02:45.794Z,15.30
2018-04-15T12:05:12.785Z,15.30
2018-04-15T12:07:39.774Z,15.30
2018-04-15T12:10:06.767Z,15.30
2018-04-15T12:12:33.754Z,15.30
2018-04-15T12:15:00.750Z,15.30
2018-04-15T12:17:28.503Z,15.40
2018-04-15T12:19:56.259Z,15.40
2018-04-15T12:22:24.014Z,15.40
2018-04-15T12:24:51.133Z,15.40
2018-04-15T12:27:18.134Z,15.40
2018-04-15T12:29:45.122Z,15.40
2018-04-15T12:32:12.124Z,15.40
2018-04-15T12:34:39.935Z,15.30
2018-04-15T12:37:06.935Z,15.30
2018-04-15T12:39:33.937Z,15.30
2018-04-15T12:42:00.923Z,15.30
2018-04-15T12:44:28.674Z,15.40
2018-04-15T12:46:56.435Z,15.40
2018-04-15T12:49:24.194Z,15.40
2018-04-15T12:51:51.190Z,15.40
2018-04-15T12:54:18.258Z,15.40
2018-04-15T12:56:45.258Z,15.40
2018-04-15T12:59:12.247Z,15.40
2018-04-15T13:01:39.229Z,15.40
2018-04-15T13:04:07.021Z,15.40
2018-04-15T13:06:34.018Z,15.40
2018-04-15T13:09:01.027Z,15.40
2018-04-15T13:11:28.023Z,15.40
2018-04-15T13:13:55.012Z,15.40
2018-04-15T13:16:22.010Z,15.40
2018-04-15T13:18:49.001Z,15.40
2018-04-15T13:21:15.987Z,15.40
2018-04-15T13:23:42.970Z,15.40
2018-04-15T13:26:10.745Z,15.40
2018-04-15T13:28:37.739Z,15.40
2018-04-15T13:31:04.726Z,15.40
2018-04-15T13:33:32.490Z,15.40
2018-04-15T13:36:00.238Z,15.50
2018-04-15T13:38:27.996Z,15.50
2018-04-15T13:40:54.985Z,15.50
2018-04-15T13:43:21.983Z,15.50
2018-04-15T13:45:49.027Z,15.50
2018-04-15T13:48:16.022Z,15.50
2018-04-15T13:50:43.014Z,15.50
2018-04-15T13:53:10.052Z,15.50
2018-04-15T13:55:37.001Z,15.50
2018-04-15T13:58:03.995Z,15.50
2018-04-15T14:00:30.980Z,15.50
2018-04-15T14:02:57.975Z,15.50
2018-04-15T14:05:25.734Z,15.60
2018-04-15T14:07:53.500Z,15.60
2018-04-15T14:10:21.259Z,15.60
2018-04-15T14:12:49.047Z,15.60
2018-04-15T14:15:16.033Z,15.60
2018-04-15T14:17:43.029Z,15.60
2018-04-15T14:20:10.024Z,15.60
2018-04-15T14:22:37.007Z,15.60
2018-04-15T14:25:04.766Z,15.60
2018-04-15T14:27:32.523Z,15.60
2018-04-15T14:30:00.277Z,15.60
2018-04-15T14:32:27.269Z,15.60
2018-04-15T14:34:55.130Z,15.60
2018-04-15T14:37:22.139Z,15.60
2018-04-15T14:39:49.165Z,15.60
2018-04-15T14:42:16.174Z,15.60
2018-04-15T14:44:43.158Z,15.60
2018-04-15T14:47:10.145Z,15.60
2018-04-15T14:49:37.148Z,15.70
2018-04-15T14:52:04.138Z,15.70
2018-04-15T14:54:31.165Z,15.90
2018-04-15T14:56:58.153Z,16.10
2018-04-15T14:59:26.400Z,16.20
2018-04-15T15:01:54.153Z,16.30
2018-04-15T15:04:21.918Z,16.60
2018-04-15T15:06:49.742Z,16.60
2018-04-15T15:09:16.792Z,16.50
2018-04-15T15:11:43.782Z,16.50
2018-04-15T15:14:11.542Z,16.40
2018-04-15T15:16:39.303Z,16.30
2018-04-15T15:19:07.062Z,16.20
2018-04-15T15:21:34.825Z,16.20
2018-04-15T15:24:01.832Z,16.20
2018-04-15T15:26:28.834Z,16.10
2018-04-15T15:28:55.828Z,16.10
2018-04-15T15:31:22.815Z,16.00
2018-04-15T15:33:50.579Z,16.00
2018-04-15T15:36:18.340Z,16.00
2018-04-15T15:38:46.093Z,15.90
2018-04-15T15:41:13.862Z,15.90
2018-04-15T15:43:41.614Z,15.90
2018-04-15T15:46:08.613Z,15.90
2018-04-15T15:48:35.652Z,15.90
2018-04-15T15:51:02.698Z,15.80
2018-04-15T15:53:29.698Z,15.90
2018-04-15T15:55:56.695Z,15.90
2018-04-15T15:58:23.737Z,15.90
2018-04-15T16:00:50.787Z,15.80
2018-04-15T16:03:17.806Z,15.80
2018-04-15T16:05:44.802Z,15.80
2018-04-15T16:08:12.698Z,15.80
2018-04-15T16:10:39.716Z,15.80
2018-04-15T16:13:06.708Z,15.80
2018-04-15T16:15:34.462Z,15.80
2018-04-15T16:18:01.485Z,15.80
2018-04-15T16:20:29.297Z,15.80
2018-04-15T16:22:56.289Z,15.80
2018-04-15T16:25:23.284Z,15.80
2018-04-15T16:27:50.271Z,15.80
2018-04-15T16:30:17.253Z,15.70
2018-04-15T16:32:45.009Z,15.80
2018-04-15T16:35:12.000Z,15.80
2018-04-15T16:37:38.992Z,15.80
2018-04-15T16:40:05.988Z,15.80
2018-04-15T16:42:32.983Z,15.80
2018-04-15T16:44:59.975Z,15.80
2018-04-15T16:47:26.960Z,15.80
2018-04-15T16:49:54.717Z,15.80
2018-04-15T16:52:22.482Z,15.80
2018-04-15T16:54:49.527Z,15.80
2018-04-15T16:57:16.611Z,15.80
2018-04-15T16:59:44.367Z,15.80
2018-04-15T17:02:11.359Z,15.80
2018-04-15T17:04:38.349Z,15.80
2018-04-15T17:07:05.340Z,15.70
2018-04-15T17:09:32.330Z,15.80
2018-04-15T17:12:43.445Z,15.70
2018-04-15T17:15:10.442Z,15.70
2018-04-15T17:17:37.557Z,15.80
2018-04-15T17:20:04.554Z,15.80
2018-04-15T17:22:31.559Z,15.80
2018-04-15T17:24:58.551Z,15.80
2018-04-15T17:27:25.589Z,15.80
2018-04-15T17:29:52.571Z,15.80
2018-04-15T17:32:20.337Z,15.90
2018-04-15T17:34:48.104Z,15.80
2018-04-15T17:37:15.100Z,15.80
2018-04-15T17:39:42.144Z,15.90
2018-04-15T17:42:09.091Z,15.80
2018-04-15T17:44:36.086Z,15.80
2018-04-15T17:47:03.876Z,15.80
2018-04-15T17:49:30.965Z,15.80
2018-04-15T17:51:57.954Z,15.80
2018-04-15T17:54:24.973Z,15.80
2018-04-15T17:56:52.820Z,15.80
2018-04-15T17:59:19.839Z,15.80
2018-04-15T18:01:46.835Z,15.90
2018-04-15T18:04:14.598Z,15.80
2018-04-15T18:06:42.368Z,15.80
2018-04-15T18:09:10.192Z,15.80
2018-04-15T18:11:37.155Z,15.80
2018-04-15T18:14:04.790Z,15.80
2018-04-15T18:16:31.792Z,15.80
2018-04-15T18:18:59.545Z,15.80
2018-04-15T18:21:27.302Z,15.80
2018-04-15T18:23:55.079Z,15.80
2018-04-15T18:26:22.843Z,15.80
2018-04-15T18:28:50.607Z,15.80
2018-04-15T18:31:18.381Z,15.80
2018-04-15T18:33:45.524Z,15.80
2018-04-15T18:36:12.533Z,15.80
2018-04-15T18:38:39.534Z,15.80
2018-04-15T18:41:06.539Z,15.80
2018-04-15T18:43:33.541Z,15.80
2018-04-15T18:46:00.626Z,15.80
2018-04-15T18:48:27.619Z,15.80
2018-04-15T18:50:54.627Z,15.80
2018-04-15T18:53:22.387Z,15.80
2018-04-15T18:55:49.407Z,15.80
2018-04-15T18:58:16.469Z,15.80
2018-04-15T19:00:43.424Z,15.80
2018-04-15T19:03:10.438Z,15.80
2018-04-15T19:05:37.443Z,15.80
2018-04-15T19:08:04.439Z,15.80
2018-04-15T19:10:31.445Z,15.80
2018-04-15T19:12:58.445Z,15.80
2018-04-15T19:15:25.443Z,15.80
2018-04-15T19:17:52.446Z,15.80
2018-04-15T19:20:20.351Z,15.80
2018-04-15T19:22:47.358Z,15.80
2018-04-15T19:25:14.354Z,15.80
2018-04-15T19:27:41.364Z,15.80
2018-04-15T19:30:09.130Z,15.80
2018-04-15T19:32:36.893Z,15.80
2018-04-15T19:35:04.666Z,15.80
2018-04-15T19:37:31.683Z,15.80
2018-04-15T19:39:58.677Z,15.80
2018-04-15T19:42:25.701Z,15.80
2018-04-15T19:44:52.702Z,15.80
2018-04-15T19:47:19.719Z,15.80
2018-04-15T19:49:46.714Z,15.80
2018-04-15T19:52:13.707Z,15.80
2018-04-15T19:54:40.711Z,15.80
2018-04-15T19:57:07.698Z,15.80
2018-04-15T19:59:34.719Z,15.80
2018-04-15T20:02:02.472Z,15.80
2018-04-15T20:04:30.241Z,15.80
2018-04-15T20:06:58.003Z,15.80
2018-04-15T20:09:25.772Z,15.80
2018-04-15T20:11:53.538Z,15.80
2018-04-15T20:14:20.540Z,15.80
2018-04-15T20:16:47.534Z,15.80
2018-04-15T20:19:14.538Z,15.80
2018-04-15T20:21:41.530Z,15.80
2018-04-15T20:24:08.531Z,15.80
2018-04-15T20:26:35.532Z,15.80
2018-04-15T20:29:02.557Z,15.80
2018-04-15T20:31:30.311Z,15.80
2018-04-15T20:33:58.066Z,15.70
2018-04-15T20:36:25.050Z,15.80
2018-04-15T20:38:52.043Z,15.80
2018-04-15T20:41:19.038Z,15.80
2018-04-15T20:43:46.029Z,15.80
2018-04-15T20:46:13.018Z,15.80
2018-04-15T20:48:40.014Z,15.70
2018-04-15T20:51:07.008Z,15.80
2018-04-15T20:53:34.003Z,15.80
2018-04-15T20:56:01.003Z,15.80
2018-04-15T20:58:28.004Z,15.80
2018-04-15T21:00:55.006Z,15.70
2018-04-15T21:03:21.998Z,15.70
2018-04-15T21:05:49.015Z,15.70
2018-04-15T21:08:16.006Z,15.80
2018-04-15T21:10:43.770Z,15.70
2018-04-15T21:13:11.532Z,15.70
2018-04-15T21:15:38.531Z,15.70
2018-04-15T21:18:05.526Z,15.80
2018-04-15T21:20:33.307Z,15.80
2018-04-15T21:23:01.059Z,15.70
2018-04-15T21:25:28.865Z,15.80
2018-04-15T21:27:56.586Z,15.70
2018-04-15T21:30:24.338Z,15.70
2018-04-15T21:32:51.338Z,15.70
2018-04-15T21:35:18.326Z,15.70
2018-04-15T21:37:45.317Z,15.70
2018-04-15T21:40:12.302Z,15.70
2018-04-15T21:42:39.294Z,15.70
2018-04-15T21:45:06.289Z,15.70
2018-04-15T21:47:33.277Z,15.70
2018-04-15T21:50:01.029Z,15.70
2018-04-15T21:52:28.802Z,15.70
2018-04-15T21:54:56.566Z,15.70
2018-04-15T21:57:24.319Z,15.70
2018-04-15T21:59:52.088Z,15.70
2018-04-15T22:02:19.843Z,15.70
2018-04-15T22:04:47.602Z,15.70
2018-04-15T22:07:14.594Z,15.70
2018-04-15T22:09:41.624Z,15.70
2018-04-15T22:12:14.457Z,15.70
2018-04-15T22:14:41.473Z,15.70
2018-04-15T22:17:08.450Z,15.70
2018-04-15T22:19:35.438Z,15.70
2018-04-15T22:22:02.432Z,15.70
2018-04-15T22:24:29.428Z,15.70
2018-04-15T22:26:56.423Z,15.70
2018-04-15T22:29:23.411Z,15.70
2018-04-15T22:31:51.174Z,15.70
2018-04-15T22:34:18.931Z,15.70
2018-04-15T22:36:46.695Z,15.70
2018-04-15T22:39:14.452Z,15.70
2018-04-15T22:41:41.449Z,15.70
2018-04-15T22:44:08.446Z,15.70
2018-04-15T22:46:35.449Z,15.70
2018-04-15T22:49:02.444Z,15.70
2018-04-15T22:51:30.203Z,15.70
2018-04-15T22:53:57.192Z,15.70
2018-04-15T22:56:24.185Z,15.70
2018-04-15T22:58:51.185Z,15.70
2018-04-15T23:01:18.188Z,15.70
2018-04-15T23:03:45.955Z,15.70
2018-04-15T23:06:13.719Z,15.70
2018-04-15T23:08:41.469Z,15.70
2018-04-15T23:11:09.281Z,15.70
2018-04-15T23:13:37.004Z,15.70
2018-04-15T23:16:04.762Z,15.70
2018-04-15T23:18:32.537Z,15.70
2018-04-15T23:21:00.287Z,15.70
2018-04-15T23:23:27.281Z,15.70
2018-04-15T23:25:54.277Z,15.70
2018-04-15T23:28:21.284Z,15.70
2018-04-15T23:30:48.278Z,15.70
2018-04-15T23:33:16.039Z,15.70
2018-04-15T23:35:43.813Z,15.70
2018-04-15T23:38:11.571Z,15.70
2018-04-15T23:40:39.335Z,15.70
2018-04-15T23:43:07.100Z,15.70
2018-04-15T23:45:34.873Z,15.70
2018-04-15T23:48:01.865Z,15.70
2018-04-15T23:50:28.858Z,15.70
2018-04-15T23:52:56.617Z,15.60
2018-04-15T23:55:24.384Z,15.70
2018-04-15T23:57:52.141Z,15.70
